createdAt,value
2022-10-29T00:00:57.265Z,9.31
2022-10-29T00:01:54.089Z,8.90
2022-10-29T00:02:50.898Z,9.54
2022-10-29T00:03:48.479Z,8.64
2022-10-29T00:04:45.214Z,9.92
2022-10-29T00:05:42.003Z,9.36
2022-10-29T00:06:38.896Z,8.24
2022-10-29T00:07:35.610Z,9.24
2022-10-29T00:08:34.718Z,9.54
2022-10-29T00:09:31.458Z,9.37
2022-10-29T00:10:29.324Z,9.56
2022-10-29T00:11:26.015Z,9.68
2022-10-29T00:12:22.728Z,9.76
2022-10-29T00:13:19.426Z,9.35
2022-10-29T00:14:17.365Z,9.20
2022-10-29T00:15:14.392Z,8.69
2022-10-29T00:16:17.398Z,8.27
2022-10-29T00:17:15.903Z,9.10
2022-10-29T00:18:12.653Z,9.14
2022-10-29T00:19:09.595Z,9.17
2022-10-29T00:21:07.965Z,8.85
2022-10-29T00:22:04.685Z,7.67
2022-10-29T00:23:01.370Z,9.15
2022-10-29T00:23:58.493Z,9.75
2022-10-29T00:24:55.192Z,9.73
2022-10-29T00:25:56.488Z,9.73
2022-10-29T00:26:53.159Z,9.65
2022-10-29T00:27:49.860Z,9.76
2022-10-29T00:28:47.386Z,8.69
2022-10-29T00:29:44.100Z,8.20
2022-10-29T00:30:40.788Z,8.92
2022-10-29T00:31:37.512Z,9.23
2022-10-29T00:32:34.228Z,8.81
2022-10-29T00:33:31.824Z,8.88
2022-10-29T00:34:29.357Z,9.55
2022-10-29T00:35:26.330Z,9.42
2022-10-29T00:36:26.834Z,9.37
2022-10-29T00:37:23.642Z,9.21
2022-10-29T00:38:20.315Z,8.72
2022-10-29T00:39:17.660Z,9.34
2022-10-29T00:40:14.420Z,9.08
2022-10-29T00:41:14.491Z,9.40
2022-10-29T00:42:16.510Z,9.26
2022-10-29T00:43:18.765Z,9.29
2022-10-29T00:44:15.417Z,9.57
2022-10-29T00:45:20.853Z,9.30
2022-10-29T00:47:40.140Z,9.33
2022-10-29T00:48:46.428Z,8.12
2022-10-29T00:49:47.444Z,8.39
2022-10-29T00:50:48.126Z,9.21
2022-10-29T00:51:47.514Z,9.21
2022-10-29T00:52:50.183Z,9.11
2022-10-29T00:53:54.566Z,7.11
2022-10-29T00:54:53.860Z,8.40
2022-10-29T00:55:51.157Z,8.89
2022-10-29T00:56:59.534Z,8.99
2022-10-29T00:57:58.229Z,8.56
2022-10-29T00:58:56.081Z,8.62
2022-10-29T00:59:53.203Z,9.23
2022-10-29T01:00:49.970Z,9.09
2022-10-29T01:01:49.437Z,8.87
2022-10-29T01:02:46.347Z,9.42
2022-10-29T01:03:43.395Z,9.21
2022-10-29T01:04:41.860Z,9.06
2022-10-29T01:05:40.048Z,9.27
2022-10-29T01:06:38.657Z,9.65
2022-10-29T01:07:35.608Z,9.70
2022-10-29T01:08:32.388Z,8.50
2022-10-29T01:09:29.185Z,9.47
2022-10-29T01:10:46.054Z,9.26
2022-10-29T01:12:09.789Z,9.52
2022-10-29T01:14:42.799Z,9.41
2022-10-29T01:15:58.016Z,9.49
2022-10-29T01:17:00.898Z,9.01
2022-10-29T01:18:42.241Z,8.44
2022-10-29T01:20:12.964Z,8.87
2022-10-29T01:21:31.357Z,9.17
2022-10-29T01:22:36.458Z,8.95
2022-10-29T01:23:54.912Z,9.08
2022-10-29T01:25:23.876Z,8.94
2022-10-29T01:26:45.755Z,7.81
2022-10-29T01:28:06.939Z,9.21
2022-10-29T01:29:40.401Z,9.29
2022-10-29T01:31:05.055Z,8.70
2022-10-29T01:32:16.000Z,8.72
2022-10-29T01:33:47.649Z,8.77
2022-10-29T01:34:56.336Z,8.89
2022-10-29T01:36:26.500Z,8.11
2022-10-29T01:37:48.798Z,8.49
2022-10-29T01:39:03.025Z,8.55
2022-10-29T01:40:17.128Z,8.66
2022-10-29T01:41:47.493Z,8.72
2022-10-29T01:42:53.553Z,7.55
2022-10-29T01:44:14.550Z,8.64
2022-10-29T01:45:36.798Z,7.98
2022-10-29T01:46:57.728Z,8.35
2022-10-29T01:48:18.922Z,9.14
2022-10-29T01:49:34.268Z,8.83
2022-10-29T01:50:33.973Z,7.69
2022-10-29T01:51:36.413Z,8.56
2022-10-29T01:52:37.314Z,8.59
2022-10-29T01:53:37.592Z,8.61
2022-10-29T01:54:34.321Z,8.62
2022-10-29T01:55:35.355Z,8.61
2022-10-29T01:56:32.069Z,8.91
2022-10-29T01:57:33.210Z,9.45
2022-10-29T01:58:31.757Z,9.16
2022-10-29T01:59:43.544Z,8.51
2022-10-29T02:01:00.316Z,8.75
2022-10-29T02:02:18.501Z,8.70
2022-10-29T02:03:33.973Z,8.64
2022-10-29T02:05:14.813Z,8.32
2022-10-29T02:06:31.211Z,7.46
2022-10-29T02:07:54.480Z,8.53
2022-10-29T02:09:02.687Z,8.43
2022-10-29T02:10:15.897Z,8.72
2022-10-29T02:11:23.848Z,8.82
2022-10-29T02:12:38.808Z,8.88
2022-10-29T02:13:44.563Z,7.64
2022-10-29T02:14:59.282Z,7.14
2022-10-29T02:15:58.908Z,8.37
2022-10-29T02:16:57.946Z,8.52
2022-10-29T02:18:00.243Z,7.17
2022-10-29T02:18:58.153Z,8.57
2022-10-29T02:19:54.880Z,8.53
2022-10-29T02:20:51.623Z,8.53
2022-10-29T02:21:50.826Z,8.75
2022-10-29T02:22:47.514Z,9.12
2022-10-29T02:23:44.360Z,9.22
2022-10-29T02:24:41.125Z,7.94
2022-10-29T02:25:37.918Z,8.71
2022-10-29T02:26:34.606Z,8.69
2022-10-29T02:27:31.321Z,9.05
2022-10-29T02:28:28.022Z,9.40
2022-10-29T02:29:24.762Z,9.25
2022-10-29T02:30:21.432Z,9.32
2022-10-29T02:31:18.110Z,9.30
2022-10-29T02:32:14.813Z,8.57
2022-10-29T02:33:11.499Z,9.40
2022-10-29T02:34:08.193Z,9.06
2022-10-29T02:35:05.289Z,8.02
2022-10-29T02:36:02.222Z,8.98
2022-10-29T02:36:58.934Z,9.42
2022-10-29T02:37:55.649Z,9.35
2022-10-29T02:38:52.350Z,9.53
2022-10-29T02:39:49.024Z,8.44
2022-10-29T02:40:45.709Z,9.61
2022-10-29T02:41:42.436Z,9.08
2022-10-29T02:42:39.128Z,8.45
2022-10-29T02:43:35.832Z,9.00
2022-10-29T02:44:32.540Z,8.08
2022-10-29T02:45:29.214Z,8.66
2022-10-29T02:46:26.460Z,7.49
2022-10-29T02:47:23.112Z,8.38
2022-10-29T02:48:19.794Z,8.53
2022-10-29T02:49:16.495Z,8.97
2022-10-29T02:50:13.307Z,8.85
2022-10-29T02:51:10.986Z,9.12
2022-10-29T02:52:07.784Z,8.28
2022-10-29T02:53:04.451Z,8.35
2022-10-29T02:54:01.163Z,9.42
2022-10-29T02:54:57.849Z,9.47
2022-10-29T02:55:54.533Z,9.37
2022-10-29T02:56:51.207Z,8.44
2022-10-29T02:57:47.904Z,8.85
2022-10-29T02:58:44.850Z,8.61
2022-10-29T02:59:41.550Z,8.90
2022-10-29T03:00:38.238Z,9.06
2022-10-29T03:01:35.048Z,8.99
2022-10-29T03:02:31.960Z,8.61
2022-10-29T03:03:29.094Z,8.77
2022-10-29T03:04:25.797Z,8.73
2022-10-29T03:05:22.473Z,8.42
2022-10-29T03:06:20.319Z,8.32
2022-10-29T03:07:17.097Z,8.30
2022-10-29T03:08:13.845Z,8.17
2022-10-29T03:09:10.591Z,8.11
2022-10-29T03:10:08.127Z,8.20
2022-10-29T03:11:04.799Z,7.83
2022-10-29T03:12:01.896Z,8.32
2022-10-29T03:13:00.100Z,8.53
2022-10-29T03:13:56.941Z,8.23
2022-10-29T03:14:53.635Z,8.12
2022-10-29T03:15:50.312Z,8.11
2022-10-29T03:16:46.984Z,7.97
2022-10-29T03:17:43.725Z,8.28
2022-10-29T03:18:40.470Z,8.40
2022-10-29T03:19:37.160Z,8.46
2022-10-29T03:20:33.924Z,8.13
2022-10-29T03:21:30.613Z,8.23
2022-10-29T03:22:27.296Z,7.42
2022-10-29T03:23:24.016Z,7.91
2022-10-29T03:24:20.759Z,8.35
2022-10-29T03:25:17.422Z,8.46
2022-10-29T03:26:14.089Z,8.28
2022-10-29T03:27:10.760Z,8.39
2022-10-29T03:28:07.494Z,7.13
2022-10-29T03:29:04.222Z,7.44
2022-10-29T03:30:00.932Z,8.51
2022-10-29T03:30:58.597Z,7.46
2022-10-29T03:31:55.272Z,8.23
2022-10-29T03:32:53.008Z,8.32
2022-10-29T03:33:49.904Z,8.46
2022-10-29T03:34:46.594Z,8.57
2022-10-29T03:35:43.331Z,8.55
2022-10-29T03:36:40.011Z,7.92
2022-10-29T03:37:36.884Z,7.95
2022-10-29T03:38:34.784Z,8.35
2022-10-29T03:39:31.521Z,8.26
2022-10-29T03:40:28.201Z,7.87
2022-10-29T03:41:24.953Z,7.82
2022-10-29T03:42:21.654Z,7.65
2022-10-29T03:43:19.046Z,7.95
2022-10-29T03:44:15.751Z,7.87
2022-10-29T03:45:12.668Z,7.66
2022-10-29T03:46:09.470Z,6.66
2022-10-29T03:47:09.206Z,7.56
2022-10-29T03:48:06.190Z,6.96
2022-10-29T03:49:02.942Z,7.76
2022-10-29T03:49:59.657Z,7.36
2022-10-29T03:51:05.855Z,7.50
2022-10-29T03:52:02.566Z,7.25
2022-10-29T03:52:59.264Z,7.48
2022-10-29T03:53:56.016Z,7.26
2022-10-29T03:54:52.668Z,7.35
2022-10-29T03:55:51.718Z,7.60
2022-10-29T03:56:48.406Z,8.02
2022-10-29T03:57:45.080Z,8.18
2022-10-29T03:58:41.752Z,7.88
2022-10-29T03:59:38.539Z,7.73
2022-10-29T04:00:35.259Z,7.52
2022-10-29T04:01:32.037Z,8.03
2022-10-29T04:02:29.034Z,7.98
2022-10-29T04:03:27.781Z,8.16
2022-10-29T04:04:24.512Z,7.91
2022-10-29T04:05:21.217Z,7.56
2022-10-29T04:06:18.322Z,7.66
2022-10-29T04:07:15.169Z,7.70
2022-10-29T04:08:11.858Z,6.98
2022-10-29T04:09:08.680Z,6.59
2022-10-29T04:10:05.794Z,8.26
2022-10-29T04:11:02.626Z,7.67
2022-10-29T04:11:59.323Z,6.70
2022-10-29T04:12:56.312Z,7.65
2022-10-29T04:13:53.675Z,7.85
2022-10-29T04:15:47.992Z,7.77
2022-10-29T04:16:44.739Z,7.62
2022-10-29T04:17:41.427Z,7.48
2022-10-29T04:18:38.123Z,7.59
2022-10-29T04:19:34.800Z,7.71
2022-10-29T04:20:45.634Z,7.79
2022-10-29T04:24:12.311Z,8.04
2022-10-29T04:29:29.147Z,7.78
2022-10-29T04:30:25.983Z,7.76
2022-10-29T04:31:22.703Z,7.92
2022-10-29T04:32:19.389Z,7.58
2022-10-29T04:33:16.223Z,7.54
2022-10-29T04:34:12.987Z,7.63
2022-10-29T04:35:09.688Z,5.59
2022-10-29T04:36:06.894Z,7.76
2022-10-29T04:37:03.663Z,7.38
2022-10-29T04:38:00.333Z,7.14
2022-10-29T04:38:57.068Z,7.12
2022-10-29T04:39:53.777Z,6.59
2022-10-29T04:40:50.778Z,7.05
2022-10-29T04:41:49.521Z,7.35
2022-10-29T04:42:46.185Z,7.24
2022-10-29T04:43:42.889Z,7.10
2022-10-29T04:44:39.577Z,6.17
2022-10-29T04:45:36.301Z,6.94
2022-10-29T04:46:33.104Z,7.20
2022-10-29T04:47:29.907Z,6.92
2022-10-29T04:48:28.392Z,6.74
2022-10-29T04:49:25.282Z,7.66
2022-10-29T04:50:21.978Z,7.65
2022-10-29T04:51:24.773Z,7.63
2022-10-29T04:52:21.485Z,7.73
2022-10-29T04:53:18.904Z,7.71
2022-10-29T04:54:15.781Z,7.60
2022-10-29T04:55:12.464Z,7.38
2022-10-29T04:56:09.186Z,7.39
2022-10-29T04:57:05.846Z,5.99
2022-10-29T04:58:02.550Z,7.07
2022-10-29T04:58:59.222Z,7.12
2022-10-29T04:59:55.923Z,5.76
2022-10-29T05:00:52.752Z,7.05
2022-10-29T05:01:49.522Z,6.81
2022-10-29T05:02:53.759Z,6.53
2022-10-29T05:03:53.088Z,6.80
2022-10-29T05:04:50.898Z,6.94
2022-10-29T05:05:47.573Z,7.05
2022-10-29T05:06:44.270Z,7.02
2022-10-29T05:07:40.937Z,5.95
2022-10-29T05:08:37.619Z,6.69
2022-10-29T05:09:34.311Z,6.99
2022-10-29T05:10:33.849Z,7.02
2022-10-29T05:11:30.629Z,5.95
2022-10-29T05:12:27.312Z,6.81
2022-10-29T05:13:24.009Z,7.33
2022-10-29T05:14:20.691Z,6.66
2022-10-29T05:15:17.372Z,7.71
2022-10-29T05:16:14.045Z,7.81
2022-10-29T05:17:10.734Z,7.41
2022-10-29T05:18:09.035Z,7.20
2022-10-29T05:19:06.611Z,7.07
2022-10-29T05:20:03.660Z,6.74
2022-10-29T05:21:00.392Z,6.87
2022-10-29T05:21:57.142Z,7.82
2022-10-29T05:23:01.730Z,7.83
2022-10-29T05:23:58.726Z,7.94
2022-10-29T05:24:55.432Z,7.80
2022-10-29T05:25:52.559Z,7.66
2022-10-29T05:26:49.582Z,7.22
2022-10-29T05:27:46.272Z,7.58
2022-10-29T05:28:42.958Z,6.32
2022-10-29T05:29:39.666Z,7.79
2022-10-29T05:30:36.482Z,7.92
2022-10-29T05:31:33.318Z,7.85
2022-10-29T05:32:30.327Z,7.29
2022-10-29T05:33:27.207Z,7.61
2022-10-29T05:34:24.015Z,7.56
2022-10-29T05:35:20.774Z,6.94
2022-10-29T05:36:17.459Z,7.38
2022-10-29T05:37:14.317Z,7.42
2022-10-29T05:38:12.433Z,6.50
2022-10-29T05:39:09.212Z,6.64
2022-10-29T05:40:06.470Z,7.35
2022-10-29T05:41:03.236Z,7.26
2022-10-29T05:41:59.941Z,7.60
2022-10-29T05:42:56.957Z,7.48
2022-10-29T05:43:53.964Z,7.79
2022-10-29T05:44:50.660Z,7.25
2022-10-29T05:45:47.433Z,7.09
2022-10-29T05:46:44.152Z,7.67
2022-10-29T05:47:41.077Z,8.50
2022-10-29T05:48:37.768Z,8.47
2022-10-29T05:49:34.792Z,8.09
2022-10-29T05:50:32.788Z,8.67
2022-10-29T05:51:30.059Z,8.72
2022-10-29T05:52:26.768Z,8.48
2022-10-29T05:53:23.607Z,8.58
2022-10-29T05:54:20.285Z,8.73
2022-10-29T05:55:17.026Z,8.98
2022-10-29T05:56:13.927Z,8.00
2022-10-29T05:57:10.676Z,9.13
2022-10-29T05:58:11.280Z,8.85
2022-10-29T05:59:07.983Z,9.02
2022-10-29T06:00:05.169Z,8.34
2022-10-29T06:01:07.394Z,9.35
2022-10-29T06:02:04.306Z,9.38
2022-10-29T06:03:01.410Z,9.50
2022-10-29T06:04:01.259Z,9.61
2022-10-29T06:04:57.969Z,9.40
2022-10-29T06:05:54.722Z,9.23
2022-10-29T06:06:51.447Z,9.67
2022-10-29T06:07:57.576Z,9.75
2022-10-29T06:08:54.621Z,8.99
2022-10-29T06:09:51.369Z,9.83
2022-10-29T06:10:48.099Z,9.51
2022-10-29T06:11:44.825Z,9.68
2022-10-29T06:12:41.499Z,9.77
2022-10-29T06:13:38.248Z,9.79
2022-10-29T06:14:34.968Z,9.81
2022-10-29T06:15:31.646Z,9.93
2022-10-29T06:16:28.342Z,9.64
2022-10-29T06:17:25.156Z,10.09
2022-10-29T06:18:21.847Z,9.62
2022-10-29T06:19:18.613Z,10.16
2022-10-29T06:20:17.397Z,9.91
2022-10-29T06:21:14.212Z,9.92
2022-10-29T06:22:10.893Z,10.08
2022-10-29T06:23:07.601Z,9.91
2022-10-29T06:24:04.584Z,9.84
2022-10-29T06:25:01.274Z,9.67
2022-10-29T06:26:01.838Z,9.56
2022-10-29T06:27:01.238Z,9.61
2022-10-29T06:28:06.336Z,10.06
2022-10-29T06:29:04.032Z,10.04
2022-10-29T06:30:00.842Z,9.88
2022-10-29T06:30:57.633Z,10.20
2022-10-29T06:31:54.348Z,9.61
2022-10-29T06:32:51.036Z,10.10
2022-10-29T06:33:47.743Z,10.34
2022-10-29T06:34:44.480Z,10.35
2022-10-29T06:35:41.262Z,10.35
2022-10-29T06:36:37.986Z,10.19
2022-10-29T06:37:38.110Z,10.35
2022-10-29T06:38:34.814Z,10.16
2022-10-29T06:39:31.505Z,10.40
2022-10-29T06:40:28.206Z,9.60
2022-10-29T06:41:27.193Z,10.57
2022-10-29T06:42:24.507Z,10.61
2022-10-29T06:43:22.178Z,10.58
2022-10-29T06:44:19.216Z,9.93
2022-10-29T06:45:15.972Z,10.15
2022-10-29T06:46:12.600Z,10.64
2022-10-29T06:47:09.328Z,10.64
2022-10-29T06:48:06.425Z,10.33
2022-10-29T06:49:03.205Z,10.30
2022-10-29T06:49:59.973Z,9.98
2022-10-29T06:50:59.850Z,9.86
2022-10-29T06:51:56.661Z,9.86
2022-10-29T06:53:05.249Z,9.96
2022-10-29T06:54:02.600Z,10.56
2022-10-29T06:55:02.248Z,10.11
2022-10-29T06:55:59.859Z,10.57
2022-10-29T06:56:56.620Z,10.57
2022-10-29T06:57:58.438Z,10.58
2022-10-29T06:58:55.133Z,9.07
2022-10-29T06:59:51.897Z,9.32
2022-10-29T07:00:49.215Z,10.55
2022-10-29T07:01:46.708Z,10.53
2022-10-29T07:02:43.497Z,10.86
2022-10-29T07:03:40.124Z,10.93
2022-10-29T07:04:36.807Z,10.61
2022-10-29T07:05:33.940Z,11.14
2022-10-29T07:06:34.463Z,11.15
2022-10-29T07:07:31.272Z,10.79
2022-10-29T07:08:29.049Z,11.15
2022-10-29T07:09:25.770Z,10.78
2022-10-29T07:10:22.475Z,11.00
2022-10-29T07:11:19.225Z,11.20
2022-10-29T07:12:15.965Z,11.15
2022-10-29T07:13:12.686Z,10.93
2022-10-29T07:14:10.006Z,11.07
2022-10-29T07:15:06.893Z,11.13
2022-10-29T07:16:03.739Z,10.99
2022-10-29T07:17:00.514Z,10.10
2022-10-29T07:18:02.954Z,10.93
2022-10-29T07:18:59.845Z,10.81
2022-10-29T07:19:56.663Z,10.91
2022-10-29T07:20:53.397Z,10.51
2022-10-29T07:21:50.088Z,11.13
2022-10-29T07:22:47.844Z,10.44
2022-10-29T07:23:44.523Z,11.18
2022-10-29T07:24:41.218Z,10.67
2022-10-29T07:25:40.038Z,10.88
2022-10-29T07:26:37.362Z,10.62
2022-10-29T07:27:34.222Z,11.35
2022-10-29T07:28:31.005Z,11.06
2022-10-29T07:29:27.745Z,9.69
2022-10-29T07:30:24.489Z,11.31
2022-10-29T07:31:21.238Z,11.09
2022-10-29T07:32:17.955Z,11.54
2022-10-29T07:33:14.816Z,11.51
2022-10-29T07:34:11.941Z,11.62
2022-10-29T07:35:08.841Z,11.63
2022-10-29T07:36:06.010Z,11.70
2022-10-29T07:37:02.740Z,10.64
2022-10-29T07:38:05.290Z,10.64
2022-10-29T07:39:07.428Z,11.68
2022-10-29T07:40:06.075Z,11.38
2022-10-29T07:41:02.809Z,11.23
2022-10-29T07:41:59.615Z,11.45
2022-10-29T07:42:56.620Z,11.70
2022-10-29T07:43:53.635Z,11.04
2022-10-29T07:44:50.366Z,12.01
2022-10-29T07:45:50.039Z,11.55
2022-10-29T07:46:46.752Z,11.68
2022-10-29T07:47:43.437Z,10.82
2022-10-29T07:48:40.161Z,12.00
2022-10-29T07:49:37.443Z,11.81
2022-10-29T07:50:34.480Z,11.16
2022-10-29T07:51:31.177Z,12.03
2022-10-29T07:52:27.871Z,11.86
2022-10-29T07:53:24.560Z,12.01
2022-10-29T07:54:21.813Z,11.13
2022-10-29T07:55:18.579Z,12.29
2022-10-29T07:56:15.286Z,11.25
2022-10-29T07:57:12.028Z,11.98
2022-10-29T07:58:12.385Z,12.17
2022-10-29T07:59:09.278Z,12.22
2022-10-29T08:00:06.522Z,11.00
2022-10-29T08:01:03.545Z,12.30
2022-10-29T08:02:00.326Z,12.03
2022-10-29T08:02:57.556Z,12.39
2022-10-29T08:03:54.260Z,12.15
2022-10-29T08:04:51.031Z,12.54
2022-10-29T08:05:55.464Z,11.59
2022-10-29T08:06:53.418Z,11.20
2022-10-29T08:07:52.798Z,12.44
2022-10-29T08:08:49.578Z,12.36
2022-10-29T08:09:46.264Z,11.71
2022-10-29T08:10:44.233Z,12.26
2022-10-29T08:11:40.976Z,12.85
2022-10-29T08:12:37.777Z,12.97
2022-10-29T08:13:34.637Z,12.35
2022-10-29T08:14:31.373Z,12.96
2022-10-29T08:15:30.938Z,13.11
2022-10-29T08:16:27.733Z,12.87
2022-10-29T08:17:24.414Z,12.27
2022-10-29T08:18:21.214Z,13.10
2022-10-29T08:19:17.908Z,12.15
2022-10-29T08:20:15.934Z,12.46
2022-10-29T08:21:12.827Z,12.05
2022-10-29T08:22:09.633Z,12.84
2022-10-29T08:23:06.378Z,13.31
2022-10-29T08:24:03.113Z,12.27
2022-10-29T08:24:59.820Z,13.34
2022-10-29T08:25:58.920Z,13.44
2022-10-29T08:26:55.620Z,13.50
2022-10-29T08:28:05.696Z,13.51
2022-10-29T08:29:02.481Z,13.50
2022-10-29T08:29:59.252Z,12.76
2022-10-29T08:30:55.998Z,13.48
2022-10-29T08:31:52.695Z,13.21
2022-10-29T08:32:49.416Z,13.58
2022-10-29T08:33:48.179Z,13.58
2022-10-29T08:34:44.917Z,13.68
2022-10-29T08:35:41.622Z,13.44
2022-10-29T08:36:38.503Z,13.78
2022-10-29T08:37:35.282Z,12.77
2022-10-29T08:38:31.943Z,13.52
2022-10-29T08:39:28.663Z,12.89
2022-10-29T08:40:36.118Z,13.90
2022-10-29T08:42:00.409Z,13.92
2022-10-29T08:43:06.238Z,14.08
2022-10-29T08:44:05.934Z,14.20
2022-10-29T08:45:36.173Z,14.24
2022-10-29T08:47:32.584Z,14.34
2022-10-29T08:48:31.907Z,14.03
2022-10-29T08:49:43.501Z,14.26
2022-10-29T08:50:57.278Z,14.36
2022-10-29T08:51:59.415Z,14.08
2022-10-29T08:53:19.410Z,14.26
2022-10-29T08:54:32.225Z,14.53
2022-10-29T08:55:37.972Z,14.52
2022-10-29T08:56:38.840Z,14.44
2022-10-29T08:57:43.841Z,14.79
2022-10-29T08:59:18.507Z,14.97
2022-10-29T09:00:19.920Z,14.85
2022-10-29T09:01:22.681Z,14.42
2022-10-29T09:02:19.899Z,14.78
2022-10-29T09:03:16.785Z,14.94
2022-10-29T09:04:26.910Z,15.02
2022-10-29T09:05:38.912Z,14.93
2022-10-29T09:07:12.200Z,14.99
2022-10-29T09:08:38.152Z,15.01
2022-10-29T09:10:03.161Z,15.05
2022-10-29T09:11:16.978Z,15.10
2022-10-29T09:12:39.738Z,14.71
2022-10-29T09:13:59.294Z,14.95
2022-10-29T09:15:11.294Z,15.11
2022-10-29T09:16:56.234Z,15.29
2022-10-29T09:18:11.728Z,15.34
2022-10-29T09:19:23.213Z,15.34
2022-10-29T09:20:29.032Z,15.44
2022-10-29T09:21:32.222Z,15.40
2022-10-29T09:22:40.960Z,15.36
2022-10-29T09:24:00.981Z,15.64
2022-10-29T09:25:09.764Z,15.38
2022-10-29T09:26:16.168Z,15.42
2022-10-29T09:27:38.353Z,15.58
2022-10-29T09:28:45.641Z,15.57
2022-10-29T09:29:56.497Z,15.73
2022-10-29T09:31:07.476Z,15.75
2022-10-29T09:32:32.037Z,15.85
2022-10-29T09:33:31.995Z,15.80
2022-10-29T09:34:47.148Z,16.02
2022-10-29T09:35:52.843Z,15.80
2022-10-29T09:36:49.731Z,15.50
2022-10-29T09:37:54.758Z,15.91
2022-10-29T09:38:59.464Z,16.07
2022-10-29T09:39:58.968Z,16.23
2022-10-29T09:40:59.291Z,16.16
2022-10-29T09:41:58.076Z,15.60
2022-10-29T09:42:55.646Z,16.14
2022-10-29T09:43:55.345Z,16.09
2022-10-29T09:44:57.476Z,15.29
2022-10-29T09:46:09.008Z,16.32
2022-10-29T09:47:28.527Z,16.45
2022-10-29T09:48:42.437Z,16.21
2022-10-29T09:50:05.183Z,16.39
2022-10-29T09:51:27.992Z,16.45
2022-10-29T09:52:31.344Z,16.44
2022-10-29T09:53:28.185Z,16.51
2022-10-29T09:54:30.509Z,16.47
2022-10-29T09:55:38.678Z,16.28
2022-10-29T09:56:35.769Z,16.40
2022-10-29T09:57:36.303Z,16.56
2022-10-29T09:58:41.713Z,16.79
2022-10-29T09:59:44.480Z,16.95
2022-10-29T10:00:41.321Z,16.97
2022-10-29T10:01:38.504Z,16.98
2022-10-29T10:02:38.677Z,17.01
2022-10-29T10:03:47.494Z,16.92
2022-10-29T10:04:51.143Z,17.06
2022-10-29T10:06:08.865Z,17.03
2022-10-29T10:07:09.689Z,17.09
2022-10-29T10:08:15.553Z,17.04
2022-10-29T10:09:12.227Z,17.08
2022-10-29T10:10:57.873Z,17.12
2022-10-29T10:11:58.895Z,17.02
2022-10-29T10:13:03.903Z,17.24
2022-10-29T10:14:08.306Z,17.32
2022-10-29T10:15:24.017Z,17.34
2022-10-29T10:16:28.672Z,17.10
2022-10-29T10:17:25.425Z,17.27
2022-10-29T10:18:23.773Z,17.48
2022-10-29T10:19:26.510Z,17.44
2022-10-29T10:20:45.519Z,17.39
2022-10-29T10:21:42.196Z,17.32
2022-10-29T10:22:46.970Z,16.96
2022-10-29T10:23:52.675Z,16.73
2022-10-29T10:24:49.431Z,16.98
2022-10-29T10:25:46.284Z,17.56
2022-10-29T10:26:43.595Z,17.66
2022-10-29T10:27:40.381Z,17.73
2022-10-29T10:28:37.251Z,17.58
2022-10-29T10:29:33.924Z,17.63
2022-10-29T10:30:30.702Z,17.45
2022-10-29T10:31:28.521Z,17.53
2022-10-29T10:32:25.917Z,16.72
2022-10-29T10:33:25.856Z,17.86
2022-10-29T10:34:23.213Z,17.96
2022-10-29T10:35:30.940Z,17.95
2022-10-29T10:36:31.045Z,17.67
2022-10-29T10:37:33.776Z,17.96
2022-10-29T10:38:43.681Z,17.59
2022-10-29T10:39:47.473Z,17.80
2022-10-29T10:40:44.513Z,17.92
2022-10-29T10:41:43.659Z,17.89
2022-10-29T10:42:47.102Z,17.90
2022-10-29T10:43:47.292Z,17.66
2022-10-29T10:45:17.651Z,18.00
2022-10-29T10:46:33.117Z,17.99
2022-10-29T10:47:36.037Z,17.70
2022-10-29T10:48:34.174Z,17.95
2022-10-29T10:49:38.012Z,17.27
2022-10-29T10:50:36.802Z,17.74
2022-10-29T10:51:37.957Z,18.05
2022-10-29T10:52:35.310Z,18.10
2022-10-29T10:53:34.952Z,18.14
2022-10-29T10:54:37.103Z,18.14
2022-10-29T10:55:38.951Z,18.07
2022-10-29T10:56:55.680Z,17.57
2022-10-29T10:57:57.969Z,18.13
2022-10-29T10:59:12.913Z,18.18
2022-10-29T11:00:21.760Z,18.45
2022-10-29T11:01:28.513Z,18.40
2022-10-29T11:02:43.453Z,18.49
2022-10-29T11:04:00.743Z,18.31
2022-10-29T11:05:16.235Z,18.56
2022-10-29T11:06:16.513Z,18.57
2022-10-29T11:07:16.709Z,18.52
2022-10-29T11:08:19.224Z,18.50
2022-10-29T11:09:24.969Z,18.49
2022-10-29T11:10:32.317Z,18.36
2022-10-29T11:11:37.407Z,18.54
2022-10-29T11:12:50.404Z,18.58
2022-10-29T11:13:49.723Z,18.68
2022-10-29T11:14:51.527Z,18.65
2022-10-29T11:15:55.584Z,18.78
2022-10-29T11:16:57.604Z,18.74
2022-10-29T11:18:12.604Z,17.42
2022-10-29T11:19:34.170Z,18.61
2022-10-29T11:20:38.663Z,18.72
2022-10-29T11:22:01.459Z,18.47
2022-10-29T11:23:25.668Z,18.84
2022-10-29T11:24:39.073Z,18.65
2022-10-29T11:25:45.250Z,19.04
2022-10-29T11:26:56.295Z,17.82
2022-10-29T11:28:08.094Z,18.87
2022-10-29T11:29:10.473Z,18.85
2022-10-29T11:30:14.425Z,18.83
2022-10-29T11:31:25.734Z,18.63
2022-10-29T11:32:28.470Z,18.95
2022-10-29T11:33:46.825Z,18.92
2022-10-29T11:35:13.391Z,18.93
2022-10-29T11:36:22.272Z,18.92
2022-10-29T11:37:41.788Z,18.90
2022-10-29T11:38:56.656Z,17.93
2022-10-29T11:40:10.373Z,18.91
2022-10-29T11:41:21.997Z,18.76
2022-10-29T11:42:18.864Z,18.50
2022-10-29T11:43:20.720Z,19.01
2022-10-29T11:44:20.754Z,18.78
2022-10-29T11:45:49.174Z,19.08
2022-10-29T11:47:10.178Z,19.09
2022-10-29T11:48:22.309Z,18.97
2022-10-29T11:50:00.525Z,19.10
2022-10-29T11:51:18.665Z,19.16
2022-10-29T11:52:35.822Z,19.26
2022-10-29T11:53:53.896Z,19.34
2022-10-29T11:55:09.029Z,18.53
2022-10-29T11:56:24.437Z,19.46
2022-10-29T11:57:40.944Z,18.63
2022-10-29T11:58:50.609Z,19.39
2022-10-29T12:00:12.844Z,19.28
2022-10-29T12:01:18.686Z,19.25
2022-10-29T12:02:18.225Z,19.43
2022-10-29T12:03:49.206Z,19.43
2022-10-29T12:05:17.328Z,19.43
2022-10-29T12:06:32.327Z,19.52
2022-10-29T12:07:39.682Z,19.55
2022-10-29T12:09:00.719Z,19.32
2022-10-29T12:10:12.832Z,19.45
2022-10-29T12:11:43.269Z,19.45
2022-10-29T12:13:02.966Z,18.73
2022-10-29T12:14:20.269Z,19.53
2022-10-29T12:15:43.126Z,18.86
2022-10-29T12:16:58.437Z,19.35
2022-10-29T12:18:22.466Z,18.90
2022-10-29T12:19:52.564Z,19.51
2022-10-29T12:21:10.748Z,19.55
2022-10-29T12:22:37.339Z,19.56
2022-10-29T12:24:11.656Z,19.56
2022-10-29T12:25:46.961Z,19.61
2022-10-29T12:26:59.571Z,19.67
2022-10-29T12:28:21.642Z,19.76
2022-10-29T12:29:20.996Z,19.81
2022-10-29T12:30:22.131Z,19.76
2022-10-29T12:31:37.254Z,19.33
2022-10-29T12:32:50.874Z,19.50
2022-10-29T12:33:55.264Z,19.84
2022-10-29T12:35:03.336Z,19.68
2022-10-29T12:36:20.882Z,19.71
2022-10-29T12:37:35.804Z,19.72
2022-10-29T12:38:38.329Z,19.78
2022-10-29T12:39:47.008Z,19.27
2022-10-29T12:40:48.518Z,19.78
2022-10-29T12:41:51.474Z,19.72
2022-10-29T12:42:50.929Z,19.79
2022-10-29T12:43:48.483Z,19.83
2022-10-29T12:44:51.734Z,19.87
2022-10-29T12:46:19.065Z,19.82
2022-10-29T12:47:38.752Z,19.43
2022-10-29T12:48:48.042Z,19.78
2022-10-29T12:50:15.213Z,19.81
2022-10-29T12:51:11.874Z,19.81
2022-10-29T12:52:19.336Z,19.57
2022-10-29T12:54:05.172Z,19.70
2022-10-29T12:55:06.561Z,19.63
2022-10-29T12:56:03.989Z,19.65
2022-10-29T12:57:31.627Z,19.73
2022-10-29T12:58:48.916Z,19.73
2022-10-29T12:59:46.092Z,19.69
2022-10-29T13:00:49.478Z,19.80
2022-10-29T13:03:04.116Z,18.90
2022-10-29T13:04:05.112Z,19.51
2022-10-29T13:05:09.682Z,19.81
2022-10-29T13:06:44.277Z,19.80
2022-10-29T13:08:03.985Z,19.78
2022-10-29T13:09:15.469Z,19.63
2022-10-29T13:10:29.458Z,19.84
2022-10-29T13:11:44.411Z,19.85
2022-10-29T13:12:58.922Z,19.94
2022-10-29T13:14:00.517Z,19.90
2022-10-29T13:15:09.357Z,18.83
2022-10-29T13:16:25.844Z,19.10
2022-10-29T13:17:33.300Z,20.46
2022-10-29T13:19:02.272Z,20.50
2022-10-29T13:20:22.173Z,20.37
2022-10-29T13:21:58.094Z,20.51
2022-10-29T13:22:58.848Z,20.84
2022-10-29T13:24:04.404Z,20.61
2022-10-29T13:25:29.607Z,20.32
2022-10-29T13:27:06.579Z,20.26
2022-10-29T13:28:09.117Z,20.30
2022-10-29T13:29:07.681Z,20.10
2022-10-29T13:30:15.887Z,20.29
2022-10-29T13:31:12.608Z,20.29
2022-10-29T13:32:32.905Z,20.11
2022-10-29T13:33:29.561Z,20.10
2022-10-29T13:34:52.943Z,20.05
2022-10-29T13:35:54.118Z,19.95
2022-10-29T13:36:50.808Z,19.81
2022-10-29T13:37:47.476Z,19.94
2022-10-29T13:39:04.312Z,19.54
2022-10-29T13:40:33.090Z,20.02
2022-10-29T13:41:40.305Z,19.95
2022-10-29T13:42:37.064Z,19.88
2022-10-29T13:43:34.659Z,19.88
2022-10-29T13:44:32.328Z,19.45
2022-10-29T13:45:31.023Z,19.96
2022-10-29T13:46:54.651Z,19.97
2022-10-29T13:47:51.714Z,19.81
2022-10-29T13:48:50.176Z,19.87
2022-10-29T13:49:50.166Z,19.60
2022-10-29T13:50:52.141Z,19.75
2022-10-29T13:51:52.821Z,19.52
2022-10-29T13:52:55.363Z,19.35
2022-10-29T13:53:58.993Z,19.86
2022-10-29T13:55:05.408Z,19.85
2022-10-29T13:56:02.925Z,18.87
2022-10-29T13:57:05.518Z,19.41